createdAt,value
2022-12-16T00:00:28.046Z,53.17
2022-12-16T00:02:51.696Z,53.40
2022-12-16T00:05:16.702Z,51.57
2022-12-16T00:07:39.923Z,50.07
2022-12-16T00:10:03.231Z,50.57
2022-12-16T00:12:26.588Z,53.27
2022-12-16T00:14:49.780Z,48.63
2022-12-16T00:17:14.025Z,47.00
2022-12-16T00:19:37.273Z,49.00
2022-12-16T00:22:01.976Z,50.23
2022-12-16T00:24:25.501Z,46.03
2022-12-16T00:26:48.719Z,49.03
2022-12-16T00:29:12.207Z,50.67
2022-12-16T00:31:35.701Z,48.50
2022-12-16T00:33:59.702Z,47.97
2022-12-16T00:36:22.992Z,48.47
2022-12-16T00:38:47.656Z,48.00
2022-12-16T00:41:10.946Z,49.10
2022-12-16T00:43:34.538Z,49.53
2022-12-16T00:45:58.183Z,47.23
2022-12-16T00:48:23.381Z,48.00
2022-12-16T00:50:50.795Z,46.60
2022-12-16T00:53:15.372Z,45.87
2022-12-16T00:55:40.043Z,49.20
2022-12-16T00:58:03.676Z,47.67
2022-12-16T01:00:27.253Z,47.73
2022-12-16T01:02:53.545Z,45.33
2022-12-16T01:05:20.717Z,44.50
2022-12-16T01:07:44.495Z,45.03
2022-12-16T01:10:10.737Z,47.47
2022-12-16T01:12:35.495Z,44.10
2022-12-16T01:14:58.768Z,46.27
2022-12-16T01:17:22.058Z,44.23
2022-12-16T01:19:45.312Z,46.03
2022-12-16T01:22:09.156Z,45.47
2022-12-16T01:24:32.680Z,43.57
2022-12-16T01:26:56.124Z,44.30
2022-12-16T01:29:20.812Z,44.50
2022-12-16T01:31:44.239Z,44.20
2022-12-16T01:34:07.528Z,45.87
2022-12-16T01:36:30.864Z,43.93
2022-12-16T01:38:54.138Z,45.10
2022-12-16T01:41:19.049Z,44.33
2022-12-16T01:43:44.281Z,43.20
2022-12-16T01:46:16.903Z,44.30
2022-12-16T01:48:46.487Z,43.23
2022-12-16T01:51:17.798Z,43.70
2022-12-16T01:53:44.625Z,44.97
2022-12-16T01:56:08.677Z,45.83
2022-12-16T01:58:36.029Z,45.83
2022-12-16T02:01:00.051Z,44.30
2022-12-16T02:03:26.997Z,45.23
2022-12-16T02:05:51.148Z,44.27
2022-12-16T02:08:16.605Z,44.70
2022-12-16T02:10:59.468Z,42.37
2022-12-16T02:13:27.932Z,45.60
2022-12-16T02:16:02.630Z,44.57
2022-12-16T02:18:39.648Z,47.07
2022-12-16T02:21:43.547Z,47.93
2022-12-16T02:24:47.162Z,46.37
2022-12-16T02:27:55.239Z,44.60
2022-12-16T02:30:47.721Z,46.80
2022-12-16T02:33:27.924Z,45.00
2022-12-16T02:35:59.027Z,45.50
2022-12-16T02:38:30.893Z,46.40
2022-12-16T02:41:02.294Z,45.97
2022-12-16T02:43:49.650Z,46.37
2022-12-16T02:46:14.592Z,43.30
2022-12-16T02:48:37.976Z,46.00
2022-12-16T02:51:01.534Z,44.83
2022-12-16T02:53:25.872Z,45.60
2022-12-16T02:55:57.047Z,43.07
2022-12-16T02:58:22.986Z,44.43
2022-12-16T03:00:59.404Z,41.87
2022-12-16T03:03:32.100Z,43.13
2022-12-16T03:05:57.216Z,42.87
2022-12-16T03:08:24.382Z,42.80
2022-12-16T03:10:55.479Z,46.47
2022-12-16T03:13:21.465Z,43.97
2022-12-16T03:15:45.967Z,44.50
2022-12-16T03:18:13.879Z,50.57
2022-12-16T03:20:45.578Z,47.87
2022-12-16T03:23:16.290Z,47.63
2022-12-16T03:25:45.081Z,45.33
2022-12-16T03:28:20.504Z,45.33
2022-12-16T03:30:50.900Z,46.10
2022-12-16T03:33:22.626Z,45.70
2022-12-16T03:35:53.313Z,46.80
2022-12-16T03:38:17.495Z,43.53
2022-12-16T03:40:44.119Z,45.07
2022-12-16T03:43:08.321Z,42.83
2022-12-16T03:45:38.391Z,45.07
2022-12-16T03:48:01.817Z,45.50
2022-12-16T03:50:30.089Z,43.73
2022-12-16T03:52:55.036Z,45.17
2022-12-16T03:55:18.286Z,46.13
2022-12-16T03:57:41.535Z,44.30
2022-12-16T04:00:06.342Z,44.77
2022-12-16T04:02:35.302Z,45.37
2022-12-16T04:04:58.701Z,45.53
2022-12-16T04:07:21.952Z,45.93
2022-12-16T04:09:47.100Z,43.63
2022-12-16T04:12:28.121Z,44.80
2022-12-16T04:15:09.025Z,44.97
2022-12-16T04:17:49.672Z,44.90
2022-12-16T04:20:34.851Z,45.13
2022-12-16T04:23:15.561Z,48.40
2022-12-16T04:25:40.346Z,46.00
2022-12-16T04:28:04.401Z,45.97
2022-12-16T04:30:29.476Z,47.47
2022-12-16T04:33:18.400Z,48.40
2022-12-16T04:35:59.898Z,49.93
2022-12-16T04:38:56.404Z,46.17
2022-12-16T04:41:39.376Z,45.47
2022-12-16T04:44:20.528Z,47.07
2022-12-16T04:47:00.584Z,44.27
2022-12-16T04:49:41.341Z,45.63
2022-12-16T04:52:22.598Z,44.17
2022-12-16T04:55:03.597Z,46.17
2022-12-16T04:57:45.834Z,43.47
2022-12-16T05:00:28.229Z,42.77
2022-12-16T05:03:09.678Z,105.20
2022-12-16T05:05:50.610Z,51.47
2022-12-16T05:08:31.374Z,44.30
2022-12-16T05:11:12.240Z,41.80
2022-12-16T05:13:54.274Z,44.17
2022-12-16T05:16:35.263Z,43.03
2022-12-16T05:19:16.092Z,40.37
2022-12-16T05:21:56.832Z,45.57
2022-12-16T05:24:37.895Z,41.07
2022-12-16T05:27:18.917Z,40.97
2022-12-16T05:30:01.212Z,40.53
2022-12-16T05:32:42.106Z,40.43
2022-12-16T05:35:23.830Z,39.97
2022-12-16T05:38:05.020Z,39.27
2022-12-16T05:40:45.561Z,37.73
2022-12-16T05:43:26.745Z,38.67
2022-12-16T05:46:09.256Z,38.57
2022-12-16T05:48:50.175Z,40.40
2022-12-16T05:51:31.235Z,39.27
2022-12-16T05:54:14.126Z,37.43
2022-12-16T05:56:54.712Z,37.87
2022-12-16T05:59:35.824Z,39.20
2022-12-16T06:02:18.463Z,36.63
2022-12-16T06:04:59.172Z,37.30
2022-12-16T06:07:40.209Z,38.33
2022-12-16T06:10:20.873Z,34.70
2022-12-16T06:13:05.407Z,37.97
2022-12-16T06:15:46.194Z,40.13
2022-12-16T06:18:28.233Z,35.90
2022-12-16T06:21:08.841Z,37.47
2022-12-16T06:23:49.981Z,38.33
2022-12-16T06:26:31.489Z,39.30
2022-12-16T06:29:12.554Z,39.37
2022-12-16T06:31:53.731Z,39.57
2022-12-16T06:34:35.886Z,39.43
2022-12-16T06:37:16.775Z,38.33
2022-12-16T06:39:57.802Z,38.40
2022-12-16T06:42:38.836Z,37.87
2022-12-16T06:45:19.545Z,40.17
2022-12-16T06:48:14.187Z,40.17
2022-12-16T06:50:56.362Z,39.07
2022-12-16T06:53:37.039Z,38.90
2022-12-16T06:56:18.173Z,38.53
2022-12-16T06:58:58.998Z,41.20
2022-12-16T07:01:39.974Z,41.20
2022-12-16T07:04:20.711Z,40.20
2022-12-16T07:07:03.210Z,39.87
2022-12-16T07:09:44.119Z,41.07
2022-12-16T07:12:24.832Z,39.93
2022-12-16T07:15:05.808Z,44.73
2022-12-16T07:17:46.793Z,43.40
2022-12-16T07:20:28.563Z,41.97
2022-12-16T07:23:16.120Z,41.90
2022-12-16T07:26:11.777Z,41.77
2022-12-16T07:28:52.362Z,43.43
2022-12-16T07:31:33.395Z,44.53
2022-12-16T07:34:14.133Z,42.60
2022-12-16T07:36:54.948Z,47.87
2022-12-16T07:39:37.086Z,45.97
2022-12-16T07:42:18.175Z,44.67
2022-12-16T07:44:59.450Z,43.43
2022-12-16T07:47:40.255Z,42.57
2022-12-16T07:50:21.130Z,44.17
2022-12-16T07:53:01.766Z,45.30
2022-12-16T07:55:43.927Z,44.07
2022-12-16T07:58:25.017Z,46.67
2022-12-16T08:01:09.386Z,44.00
2022-12-16T08:03:50.607Z,44.30
2022-12-16T08:06:33.915Z,49.53
2022-12-16T08:09:18.236Z,50.73
2022-12-16T08:12:00.290Z,51.27
2022-12-16T08:14:41.155Z,49.30
2022-12-16T08:17:22.154Z,56.10
2022-12-16T08:20:03.186Z,54.73
2022-12-16T08:22:44.092Z,53.73
2022-12-16T08:25:27.547Z,54.90
2022-12-16T08:28:14.905Z,56.33
2022-12-16T08:30:55.985Z,58.67
2022-12-16T08:33:37.928Z,57.73
2022-12-16T08:36:19.293Z,55.27
2022-12-16T08:39:00.182Z,54.37
2022-12-16T08:41:41.048Z,52.37
2022-12-16T08:44:23.810Z,51.37
2022-12-16T08:47:04.437Z,51.07
2022-12-16T08:49:44.988Z,53.67
2022-12-16T08:52:25.616Z,54.90
2022-12-16T08:55:06.507Z,54.20
2022-12-16T08:57:47.482Z,53.30
2022-12-16T09:00:31.337Z,54.10
2022-12-16T09:03:14.884Z,53.40
2022-12-16T09:05:55.690Z,54.53
2022-12-16T09:08:36.787Z,53.27
2022-12-16T09:11:20.184Z,51.83
2022-12-16T09:14:01.156Z,56.60
2022-12-16T09:16:43.588Z,54.87
2022-12-16T09:19:24.704Z,53.07
2022-12-16T09:22:05.377Z,54.23
2022-12-16T09:24:46.392Z,55.63
2022-12-16T09:27:27.369Z,54.37
2022-12-16T09:30:08.254Z,54.83
2022-12-16T09:32:51.100Z,56.43
2022-12-16T09:35:32.502Z,56.23
2022-12-16T09:38:13.507Z,56.37
2022-12-16T09:40:57.280Z,53.43
2022-12-16T09:43:59.556Z,54.43
2022-12-16T09:46:50.976Z,55.13
2022-12-16T09:49:39.855Z,53.60
2022-12-16T09:52:22.764Z,58.10
2022-12-16T09:55:05.216Z,55.67
2022-12-16T09:57:51.312Z,50.30
2022-12-16T10:00:40.480Z,50.83
2022-12-16T10:03:42.726Z,50.73
2022-12-16T10:06:34.334Z,50.37
2022-12-16T10:09:27.209Z,50.17
2022-12-16T10:12:17.864Z,47.97
2022-12-16T10:15:13.317Z,49.63
2022-12-16T10:17:58.479Z,54.43
2022-12-16T10:20:49.332Z,50.17
2022-12-16T10:23:40.600Z,52.50
2022-12-16T10:26:30.278Z,51.90
2022-12-16T10:29:16.234Z,50.70
2022-12-16T10:31:57.972Z,50.03
2022-12-16T10:34:45.933Z,53.07
2022-12-16T10:37:32.385Z,52.43
2022-12-16T10:40:18.772Z,52.10
2022-12-16T10:43:07.896Z,53.57
2022-12-16T10:45:55.009Z,51.77
2022-12-16T10:48:51.134Z,53.50
2022-12-16T10:51:38.979Z,52.20
2022-12-16T10:54:40.529Z,53.67
2022-12-16T10:57:33.801Z,55.60
2022-12-16T11:00:29.287Z,57.60
2022-12-16T11:03:10.397Z,62.60
2022-12-16T11:05:53.358Z,62.93
2022-12-16T11:08:46.892Z,65.23
2022-12-16T11:11:38.240Z,62.37
2022-12-16T11:14:37.176Z,60.73
2022-12-16T11:17:33.974Z,67.03
2022-12-16T11:20:30.444Z,66.93
2022-12-16T11:23:28.173Z,63.23
2022-12-16T11:26:34.482Z,71.43
2022-12-16T11:29:27.611Z,66.37
2022-12-16T11:32:18.029Z,64.23
2022-12-16T11:35:00.806Z,61.63
2022-12-16T11:37:43.470Z,69.70
2022-12-16T11:40:29.937Z,67.63
2022-12-16T11:43:16.787Z,72.50
2022-12-16T11:45:58.106Z,67.80
2022-12-16T11:48:52.197Z,68.83
2022-12-16T11:51:34.877Z,70.77
2022-12-16T11:54:27.208Z,73.90
2022-12-16T11:57:08.720Z,71.70
2022-12-16T11:59:59.614Z,67.93
2022-12-16T12:02:48.558Z,70.63
2022-12-16T12:05:33.094Z,67.87
2022-12-16T12:08:21.285Z,69.53
2022-12-16T12:11:26.165Z,70.10
2022-12-16T12:14:23.804Z,68.20
2022-12-16T12:17:21.508Z,66.57
2022-12-16T12:20:18.777Z,78.43
2022-12-16T12:23:00.972Z,84.07
2022-12-16T12:25:51.499Z,82.57
2022-12-16T12:28:51.263Z,77.93
2022-12-16T12:31:47.720Z,73.03
2022-12-16T12:34:36.724Z,75.17
2022-12-16T12:37:26.048Z,75.10
2022-12-16T12:40:18.846Z,73.10
2022-12-16T12:43:06.032Z,71.37
2022-12-16T12:46:07.077Z,69.60
2022-12-16T12:48:58.957Z,69.13
2022-12-16T12:51:50.021Z,62.00
2022-12-16T12:54:40.360Z,61.97
2022-12-16T12:57:25.485Z,65.47
2022-12-16T13:00:14.046Z,61.53
2022-12-16T13:03:05.440Z,60.13
2022-12-16T13:05:50.061Z,59.87
2022-12-16T13:09:04.707Z,59.70
2022-12-16T13:11:46.047Z,64.00
2022-12-16T13:15:13.699Z,60.97
2022-12-16T13:18:49.051Z,57.33
2022-12-16T13:22:02.187Z,60.67
2022-12-16T13:24:56.190Z,57.60
2022-12-16T13:27:37.128Z,56.30
2022-12-16T13:30:37.040Z,57.13
2022-12-16T13:33:31.720Z,56.90
2022-12-16T13:36:16.383Z,59.30
2022-12-16T13:39:07.433Z,58.97
2022-12-16T13:42:18.402Z,62.20
2022-12-16T13:45:17.444Z,64.80
2022-12-16T13:48:21.913Z,59.33
2022-12-16T13:51:04.792Z,60.93
2022-12-16T13:53:50.436Z,60.93
2022-12-16T13:56:37.457Z,64.07
2022-12-16T13:59:18.999Z,67.10
2022-12-16T14:02:08.610Z,65.37
2022-12-16T14:04:54.487Z,65.23
2022-12-16T14:07:37.173Z,65.77
2022-12-16T14:10:19.979Z,63.23
2022-12-16T14:13:14.867Z,65.10
2022-12-16T14:16:08.457Z,60.37
2022-12-16T14:19:02.036Z,57.93
2022-12-16T14:22:03.991Z,55.93
2022-12-16T14:24:46.412Z,58.07
2022-12-16T14:27:35.996Z,59.23
2022-12-16T14:30:17.583Z,56.70
2022-12-16T14:32:58.546Z,57.97
2022-12-16T14:35:38.859Z,55.00
2022-12-16T14:38:40.777Z,57.60
2022-12-16T14:41:21.556Z,57.53
2022-12-16T14:44:03.748Z,59.90
2022-12-16T14:46:49.021Z,55.67
2022-12-16T14:49:44.859Z,54.93
2022-12-16T14:52:54.571Z,59.57
2022-12-16T14:55:38.530Z,56.87
2022-12-16T14:58:29.976Z,57.73
2022-12-16T15:01:16.328Z,55.77
2022-12-16T15:03:59.997Z,59.17
2022-12-16T15:06:46.429Z,61.63
2022-12-16T15:09:39.029Z,63.00
2022-12-16T15:12:20.356Z,57.00
2022-12-16T15:15:04.939Z,62.90
2022-12-16T15:17:59.232Z,60.63
2022-12-16T15:20:45.175Z,63.80
2022-12-16T15:23:36.029Z,62.97
2022-12-16T15:26:17.317Z,75.95
2022-12-16T15:29:01.287Z,65.53
2022-12-16T15:31:44.702Z,63.47
2022-12-16T15:34:54.670Z,60.03
2022-12-16T15:37:40.669Z,59.10
2022-12-16T15:40:22.297Z,57.53
2022-12-16T15:43:09.847Z,57.10
2022-12-16T15:45:52.316Z,59.93
2022-12-16T15:48:38.941Z,60.13
2022-12-16T15:51:21.038Z,61.93
2022-12-16T15:54:01.713Z,60.37
2022-12-16T15:56:46.204Z,63.00
2022-12-16T15:59:42.277Z,63.27
2022-12-16T16:02:26.041Z,64.37
2022-12-16T16:05:07.203Z,63.83
2022-12-16T16:07:49.213Z,71.37
2022-12-16T16:10:35.048Z,78.37
2022-12-16T16:13:15.919Z,76.43
2022-12-16T16:15:56.761Z,70.47
2022-12-16T16:18:37.615Z,72.03
2022-12-16T16:21:18.557Z,72.43
2022-12-16T16:24:00.747Z,74.50
2022-12-16T16:26:41.887Z,77.73
2022-12-16T16:29:22.671Z,74.77
2022-12-16T16:32:04.509Z,74.60
2022-12-16T16:34:45.595Z,71.30
2022-12-16T16:37:34.500Z,75.20
2022-12-16T16:40:16.726Z,75.50
2022-12-16T16:42:57.404Z,73.63
2022-12-16T16:45:38.168Z,81.50
2022-12-16T16:48:29.532Z,74.87
2022-12-16T16:51:13.503Z,79.30
2022-12-16T16:53:54.331Z,81.97
2022-12-16T16:56:36.785Z,82.60
2022-12-16T16:59:17.721Z,78.87
2022-12-16T17:01:58.743Z,77.23
2022-12-16T17:04:39.894Z,80.03
2022-12-16T17:07:20.892Z,78.83
2022-12-16T17:10:01.807Z,78.50
2022-12-16T17:12:45.900Z,79.70
2022-12-16T17:15:39.550Z,77.40
2022-12-16T17:18:21.167Z,76.53
2022-12-16T17:21:01.929Z,78.00
2022-12-16T17:23:42.983Z,76.73
2022-12-16T17:26:23.863Z,78.17
2022-12-16T17:29:08.163Z,80.23
2022-12-16T17:31:52.214Z,78.70
2022-12-16T17:34:33.265Z,76.23
2022-12-16T17:37:14.260Z,79.17
2022-12-16T17:39:55.397Z,79.80
2022-12-16T17:42:47.811Z,68.50
2022-12-16T17:45:30.643Z,68.50
2022-12-16T17:48:11.553Z,67.20
2022-12-16T17:50:52.716Z,68.53
2022-12-16T17:53:33.991Z,65.27
2022-12-16T17:56:15.272Z,66.33
2022-12-16T17:58:57.616Z,65.40
2022-12-16T18:01:40.676Z,67.40
2022-12-16T18:04:21.790Z,66.17
2022-12-16T18:07:02.725Z,65.27
2022-12-16T18:09:43.734Z,65.63
2022-12-16T18:12:30.303Z,67.17
2022-12-16T18:15:11.081Z,72.30
2022-12-16T18:17:52.959Z,62.30
2022-12-16T18:20:33.898Z,67.97
2022-12-16T18:23:14.768Z,64.63
2022-12-16T18:25:55.583Z,64.43
2022-12-16T18:28:44.877Z,66.17
2022-12-16T18:31:25.974Z,63.73
2022-12-16T18:34:08.266Z,63.27
2022-12-16T18:36:49.159Z,63.60
2022-12-16T18:39:41.387Z,67.80
2022-12-16T18:42:22.457Z,68.23
2022-12-16T18:45:03.516Z,60.83
2022-12-16T18:47:44.439Z,62.67
2022-12-16T18:50:31.555Z,62.57
2022-12-16T18:53:14.926Z,59.97
2022-12-16T18:55:55.678Z,60.13
2022-12-16T18:58:51.325Z,57.83
2022-12-16T19:01:37.828Z,63.07
2022-12-16T19:04:18.577Z,71.63
2022-12-16T19:07:00.776Z,61.13
2022-12-16T19:09:42.074Z,56.97
2022-12-16T19:12:23.808Z,57.43
2022-12-16T19:15:04.695Z,57.07
2022-12-16T19:17:41.997Z,57.53
2022-12-16T19:20:26.295Z,57.03
2022-12-16T19:23:11.150Z,56.90
2022-12-16T19:25:53.428Z,58.73
2022-12-16T19:28:34.639Z,65.17
2022-12-16T19:31:15.746Z,55.83
2022-12-16T19:33:56.775Z,55.13
2022-12-16T19:36:38.546Z,56.47
2022-12-16T19:39:23.241Z,57.60
2022-12-16T19:42:04.075Z,56.77
2022-12-16T19:44:45.026Z,55.87
2022-12-16T19:47:25.718Z,62.20
2022-12-16T19:50:21.170Z,59.37
2022-12-16T19:53:07.611Z,60.93
2022-12-16T19:55:49.705Z,57.57
2022-12-16T19:58:30.403Z,57.77
2022-12-16T20:01:11.535Z,53.30
2022-12-16T20:03:53.376Z,53.47
2022-12-16T20:06:37.593Z,54.80
2022-12-16T20:09:18.685Z,52.63
2022-12-16T20:12:01.805Z,52.63
2022-12-16T20:14:43.177Z,53.23
2022-12-16T20:17:24.168Z,51.90
2022-12-16T20:20:08.127Z,52.13
2022-12-16T20:22:48.358Z,51.53
2022-12-16T20:25:29.586Z,50.13
2022-12-16T20:28:12.117Z,51.43
2022-12-16T20:30:53.643Z,48.37
2022-12-16T20:33:37.253Z,57.13
2022-12-16T20:36:20.040Z,59.37
2022-12-16T20:39:01.177Z,63.87
2022-12-16T20:41:42.940Z,56.03
2022-12-16T20:44:25.550Z,59.97
2022-12-16T20:47:06.349Z,55.17
2022-12-16T20:49:47.113Z,57.07
2022-12-16T20:52:28.225Z,56.37
2022-12-16T20:55:09.247Z,58.57
2022-12-16T20:57:50.216Z,55.20
2022-12-16T21:00:34.245Z,51.13
2022-12-16T21:03:15.360Z,52.60
2022-12-16T21:05:56.316Z,50.83
2022-12-16T21:08:45.999Z,52.80
2022-12-16T21:11:26.546Z,52.90
2022-12-16T21:14:07.593Z,52.97
2022-12-16T21:16:49.860Z,52.90
2022-12-16T21:19:33.539Z,51.83
2022-12-16T21:22:14.989Z,52.77
2022-12-16T21:24:55.943Z,52.03
2022-12-16T21:27:37.569Z,51.97
2022-12-16T21:30:18.285Z,51.10
2022-12-16T21:33:00.640Z,48.87
2022-12-16T21:35:41.455Z,50.00
2022-12-16T21:38:27.194Z,53.53
2022-12-16T21:41:10.538Z,52.50
2022-12-16T21:43:51.724Z,52.77
2022-12-16T21:46:32.430Z,50.47
2022-12-16T21:49:14.695Z,54.60
2022-12-16T21:51:56.386Z,54.60
2022-12-16T21:54:37.206Z,53.03
2022-12-16T21:57:18.131Z,55.97
2022-12-16T21:59:58.421Z,55.27
2022-12-16T22:02:39.020Z,51.03
2022-12-16T22:05:21.343Z,53.40
2022-12-16T22:08:02.435Z,53.07
2022-12-16T22:10:48.438Z,51.67
2022-12-16T22:13:29.263Z,51.63
2022-12-16T22:16:14.668Z,50.83
2022-12-16T22:18:56.085Z,51.03
2022-12-16T22:21:38.215Z,54.07
2022-12-16T22:24:19.155Z,49.03
2022-12-16T22:26:59.969Z,53.63
2022-12-16T22:29:40.729Z,56.13
2022-12-16T22:32:21.802Z,49.83
2022-12-16T22:35:11.082Z,46.77
2022-12-16T22:37:53.221Z,47.20
2022-12-16T22:40:36.849Z,46.30
2022-12-16T22:43:17.744Z,52.73
2022-12-16T22:45:58.591Z,49.30
2022-12-16T22:48:47.923Z,55.07
2022-12-16T22:51:30.184Z,51.17
2022-12-16T22:54:12.205Z,49.57
2022-12-16T22:56:56.284Z,51.13
2022-12-16T22:59:37.133Z,48.43
2022-12-16T23:02:17.936Z,45.43
2022-12-16T23:04:58.730Z,48.50
2022-12-16T23:07:39.883Z,47.50
2022-12-16T23:10:22.883Z,52.43
2022-12-16T23:13:04.196Z,50.67
2022-12-16T23:15:45.095Z,51.53
2022-12-16T23:18:37.628Z,49.83
2022-12-16T23:21:18.713Z,44.73
2022-12-16T23:23:59.348Z,51.43
2022-12-16T23:26:41.398Z,48.00
2022-12-16T23:29:22.856Z,48.00
2022-12-16T23:32:03.557Z,47.80
2022-12-16T23:34:46.262Z,50.10
2022-12-16T23:37:27.395Z,49.03
2022-12-16T23:40:08.242Z,45.57
2022-12-16T23:42:50.341Z,45.63
2022-12-16T23:45:31.096Z,45.43
2022-12-16T23:48:19.737Z,47.73
2022-12-16T23:51:01.136Z,47.93
2022-12-16T23:53:41.941Z,47.20
2022-12-16T23:56:22.736Z,45.97
2022-12-16T23:59:06.220Z,42.20
